createdAt,value
2022-12-15T00:02:17.027Z,0.00
2022-12-15T00:05:02.428Z,-0.20
2022-12-15T00:07:47.806Z,-0.20
2022-12-15T00:10:33.133Z,-0.20
2022-12-15T00:13:18.726Z,-0.20
2022-12-15T00:16:07.314Z,-0.30
2022-12-15T00:18:52.501Z,-0.30
2022-12-15T00:21:37.889Z,-0.30
2022-12-15T00:24:23.347Z,-0.30
2022-12-15T00:27:08.768Z,-0.30
2022-12-15T00:29:54.222Z,-0.40
2022-12-15T00:32:40.094Z,-0.40
2022-12-15T00:35:25.669Z,-0.40
2022-12-15T00:38:11.099Z,-0.50
2022-12-15T00:40:37.712Z,-0.50
2022-12-15T00:43:05.572Z,-0.60
2022-12-15T00:45:52.030Z,-0.60
2022-12-15T00:48:20.033Z,-0.60
2022-12-15T00:50:53.242Z,-0.60
2022-12-15T00:53:40.713Z,-0.60
2022-12-15T00:56:26.588Z,-0.70
2022-12-15T00:59:12.731Z,-0.70
2022-12-15T01:01:59.261Z,-0.70
2022-12-15T01:04:46.011Z,-0.80
2022-12-15T01:07:32.444Z,-0.80
2022-12-15T01:10:18.232Z,-0.80
2022-12-15T01:13:04.793Z,-0.80
2022-12-15T01:15:50.890Z,-0.90
2022-12-15T01:18:36.284Z,-0.90
2022-12-15T01:21:08.366Z,-0.90
2022-12-15T01:23:36.454Z,-0.90
2022-12-15T01:26:04.617Z,-0.80
2022-12-15T01:28:32.050Z,-0.80
2022-12-15T01:30:59.085Z,-0.80
2022-12-15T01:33:26.243Z,-0.70
2022-12-15T01:36:02.351Z,-0.70
2022-12-15T01:38:30.336Z,-0.70
2022-12-15T01:41:04.410Z,-0.70
2022-12-15T01:43:35.225Z,-0.70
2022-12-15T01:46:17.940Z,-0.70
2022-12-15T01:49:11.819Z,-0.70
2022-12-15T01:51:42.483Z,-0.80
2022-12-15T01:54:48.550Z,-0.80
2022-12-15T01:57:21.602Z,-0.90
2022-12-15T01:59:54.371Z,-0.80
2022-12-15T02:02:26.679Z,-0.80
2022-12-15T02:04:57.807Z,-0.90
2022-12-15T02:07:25.235Z,-0.90
2022-12-15T02:09:55.158Z,-0.90
2022-12-15T02:12:30.582Z,-0.90
2022-12-15T02:15:12.705Z,-0.90
2022-12-15T02:18:34.090Z,-0.90
2022-12-15T02:21:06.444Z,-0.90
2022-12-15T02:24:00.478Z,-0.90
2022-12-15T02:26:54.146Z,-0.90
2022-12-15T02:29:45.483Z,-1.00
2022-12-15T02:34:42.694Z,-1.00
2022-12-15T02:37:24.121Z,-1.00
2022-12-15T02:39:50.730Z,-1.10
2022-12-15T02:42:17.362Z,-1.10
2022-12-15T02:45:01.652Z,-1.10
2022-12-15T02:47:52.497Z,-1.10
2022-12-15T02:50:51.622Z,-1.10
2022-12-15T02:53:37.024Z,-1.10
2022-12-15T02:56:25.667Z,-1.00
2022-12-15T02:59:21.246Z,-1.00
2022-12-15T03:01:59.486Z,-1.10
2022-12-15T03:04:27.629Z,-1.10
2022-12-15T03:07:01.202Z,-1.20
2022-12-15T03:09:28.191Z,-1.20
2022-12-15T03:11:54.742Z,-1.20
2022-12-15T03:14:21.419Z,-1.20
2022-12-15T03:16:48.105Z,-1.20
2022-12-15T03:19:14.815Z,-1.20
2022-12-15T03:21:41.448Z,-1.10
2022-12-15T03:24:08.146Z,-1.20
2022-12-15T03:26:34.824Z,-1.20
2022-12-15T03:29:01.456Z,-1.20
2022-12-15T03:31:28.147Z,-1.20
2022-12-15T03:33:55.428Z,-1.30
2022-12-15T03:36:25.302Z,-1.20
2022-12-15T03:38:51.890Z,-1.20
2022-12-15T03:41:19.238Z,-1.20
2022-12-15T03:43:46.340Z,-1.30
2022-12-15T03:46:16.667Z,-1.30
2022-12-15T03:48:43.377Z,-1.30
2022-12-15T03:51:10.101Z,-1.30
2022-12-15T03:53:36.770Z,-1.30
2022-12-15T03:56:03.546Z,-1.30
2022-12-15T03:58:30.286Z,-1.30
2022-12-15T04:00:57.087Z,-1.40
2022-12-15T04:03:23.841Z,-1.40
2022-12-15T04:05:51.512Z,-1.50
2022-12-15T04:08:18.155Z,-1.50
2022-12-15T04:10:44.755Z,-1.50
2022-12-15T04:13:11.895Z,-1.50
2022-12-15T04:15:39.790Z,-1.50
2022-12-15T04:18:09.790Z,-1.50
2022-12-15T04:20:37.194Z,-1.50
2022-12-15T04:23:03.860Z,-1.50
2022-12-15T04:25:49.303Z,-1.50
2022-12-15T04:28:34.737Z,-1.60
2022-12-15T04:31:29.778Z,-1.50
2022-12-15T04:34:22.344Z,-1.60
2022-12-15T04:37:10.062Z,-1.50
2022-12-15T04:39:56.998Z,-1.50
2022-12-15T04:42:42.989Z,-1.50
2022-12-15T04:45:30.353Z,-1.50
2022-12-15T04:48:15.771Z,-1.50
2022-12-15T04:51:00.986Z,-1.40
2022-12-15T04:53:46.392Z,-1.40
2022-12-15T04:56:33.875Z,-1.40
2022-12-15T04:59:19.666Z,-1.40
2022-12-15T05:02:05.440Z,-1.40
2022-12-15T05:04:50.705Z,-1.40
2022-12-15T05:07:35.975Z,-1.40
2022-12-15T05:10:21.966Z,-1.40
2022-12-15T05:13:07.376Z,-1.30
2022-12-15T05:21:25.728Z,-1.30
2022-12-15T05:46:55.566Z,-1.30
2022-12-15T05:49:23.250Z,-1.20
2022-12-15T05:51:49.793Z,-1.30
2022-12-15T05:54:18.847Z,-1.30
2022-12-15T05:56:46.108Z,-1.30
2022-12-15T05:59:13.157Z,-1.30
2022-12-15T06:01:39.959Z,-1.30
2022-12-15T06:04:07.371Z,-1.30
2022-12-15T06:06:34.028Z,-1.40
2022-12-15T06:09:00.603Z,-1.30
2022-12-15T06:11:27.336Z,-1.30
2022-12-15T06:13:55.448Z,-1.30
2022-12-15T06:16:23.670Z,-1.30
2022-12-15T06:18:56.026Z,-1.30
2022-12-15T06:21:26.565Z,-1.30
2022-12-15T06:23:54.793Z,-1.30
2022-12-15T06:26:27.679Z,-1.30
2022-12-15T06:28:57.374Z,-1.30
2022-12-15T06:31:26.045Z,-1.30
2022-12-15T06:34:00.905Z,-1.40
2022-12-15T08:01:07.796Z,-1.30
2022-12-15T08:03:35.913Z,-1.10
2022-12-15T08:06:07.903Z,-1.00
2022-12-15T08:08:35.850Z,-0.90
2022-12-15T08:11:07.825Z,-0.30
2022-12-15T08:16:22.148Z,0.10
2022-12-15T08:18:48.949Z,-0.40
2022-12-15T08:58:36.523Z,-0.60
2022-12-15T09:01:06.380Z,-0.50
2022-12-15T09:03:34.885Z,-0.60
2022-12-15T10:15:35.470Z,-0.50
2022-12-15T10:18:20.691Z,0.00
2022-12-15T10:20:48.574Z,0.00
2022-12-15T10:23:17.986Z,0.00
2022-12-15T10:31:15.736Z,0.10
2022-12-15T10:33:48.738Z,0.10
2022-12-15T10:36:17.466Z,0.10
2022-12-15T10:38:50.518Z,0.10
2022-12-15T10:41:27.524Z,0.10
2022-12-15T10:43:54.805Z,0.20
2022-12-15T10:46:26.480Z,0.20
2022-12-15T10:49:21.302Z,0.20
2022-12-15T10:52:00.161Z,0.10
2022-12-15T10:54:34.017Z,0.20
2022-12-15T10:57:15.765Z,0.30
2022-12-15T10:59:42.442Z,0.30
2022-12-15T11:02:24.273Z,0.20
2022-12-15T11:05:00.591Z,0.30
2022-12-15T11:07:41.289Z,0.30
2022-12-15T11:10:15.646Z,0.20
2022-12-15T11:12:51.815Z,0.20
2022-12-15T11:15:24.295Z,0.20
2022-12-15T11:18:04.428Z,0.20
2022-12-15T11:20:37.139Z,0.10
2022-12-15T11:23:13.619Z,0.10
2022-12-15T11:25:45.046Z,0.10
2022-12-15T11:28:22.091Z,0.10
2022-12-15T11:31:02.895Z,0.10
2022-12-15T11:33:29.829Z,0.20
2022-12-15T11:36:23.624Z,0.30
2022-12-15T11:38:52.395Z,0.30
2022-12-15T11:41:43.650Z,0.20
2022-12-15T11:44:27.228Z,0.20
2022-12-15T11:47:13.192Z,0.20
2022-12-15T11:50:23.185Z,0.10
2022-12-15T11:53:11.686Z,0.20
2022-12-15T11:56:09.726Z,0.20
2022-12-15T11:58:50.315Z,0.10
2022-12-15T12:01:51.635Z,0.20
2022-12-15T12:04:39.161Z,0.20
2022-12-15T12:07:38.453Z,0.20
2022-12-15T12:10:31.539Z,0.20
2022-12-15T12:13:09.984Z,0.20
2022-12-15T12:15:53.472Z,0.20
2022-12-15T12:18:22.898Z,0.20
2022-12-15T12:21:00.096Z,0.20
2022-12-15T12:23:48.033Z,0.10
2022-12-15T12:26:54.776Z,0.10
2022-12-15T12:29:43.714Z,0.10
2022-12-15T12:32:40.346Z,0.20
2022-12-15T12:38:11.652Z,0.10
2022-12-15T12:40:41.120Z,0.10
2022-12-15T12:43:30.860Z,0.20
2022-12-15T12:46:03.521Z,0.10
2022-12-15T12:48:33.619Z,0.00
2022-12-15T12:56:05.643Z,0.00
2022-12-15T15:03:12.825Z,0.10
2022-12-15T15:09:10.478Z,0.00
2022-12-15T15:11:39.404Z,-0.90
2022-12-15T20:44:24.317Z,-0.90
2022-12-15T20:46:51.196Z,-0.20
2022-12-15T20:49:20.800Z,-0.20
2022-12-15T20:51:48.723Z,-0.20
2022-12-15T20:54:20.922Z,-0.20
2022-12-15T20:56:48.603Z,-0.20
2022-12-15T20:59:16.736Z,-0.20
2022-12-15T21:01:44.538Z,-0.20
2022-12-15T21:04:27.077Z,-0.20
2022-12-15T21:06:55.260Z,-0.10
2022-12-15T21:39:21.540Z,-0.10
2022-12-15T22:54:18.993Z,0.10
2022-12-15T23:06:40.419Z,0.40
2022-12-15T23:09:07.137Z,0.50
2022-12-15T23:11:41.311Z,0.50
2022-12-15T23:16:46.274Z,0.50
2022-12-15T23:19:25.155Z,0.50
2022-12-15T23:21:52.133Z,0.50
2022-12-15T23:24:18.928Z,0.50
2022-12-15T23:46:23.150Z,0.50
